Hauptseite
METAR-TAF:

METAR-TAF

Flughäfen :

Flugplatz Wiesbaden-Erbenheim

Wiesbaden, Deutschland

Breite: 50-03N, Länge: 008-20E, Höhe: 140 m

Beobachtung

Neuester Wetterbericht von vor 19 Minuten, um 18:56 UTC
Wind 3 kt aus Nord/Nordost
Temperatur 17°C
Luftfeuchtigkeit 42%
Luftdruck 1016 hPa
Sichtweite 10 km oder mehr
Himmel klar

METAR: ETOU 211856Z AUTO 03003KT 9999 CLR 17/04 A3000 RMK AO2 SLP160 T01720042 $

Zeit: 21:15 (19:15 UTC)

Prognose

Neuester Wetterbericht von vor 6 Stunden und 2 Minuten, um 13:13 UTC
Gültige Prognose vom 21 um 13 UTC bis 22 um 19 UTC
Wind 9 kt aus Ost
Sichtweite 10 km oder mehr
Himmel klar
Übergehend zu
vom 21 um 17 UTC bis 21 um 18 UTC
Wind 6 kt aus unterschiedlichen Richtungen
Sichtweite: 2303 m
Himmel klar

TAF: ETOU 211313Z 2113/2219 09009KT 9999 SKC QNH3002INS BECMG 2117/2118 VRB06KT 9999 SKC QNH2989INS TX26/2115Z TN08/2204Z LAST NO AMDS AFT 2117 NEXT 2303

Wetterbeobachtungen und Prognosen von mehr als 4000 Flughäfen (METAR und TAF Bericht).

Die verfügbaren Stationen werden durch gelbe und rote Markierungen auf der Karte dargestellt.

Führen Sie die Maus auf sie, um den Namen der Station zu sehen.

Darauf klicken, um die Beobachtung von Wetterbeobachtungen und Prognosen zu sehen.

Um die Karte zu ändern : klicken Sie auf den grünen Tasten mit einem schwarzen Kreuz Zum Vergrößern, auf den grünen Button mit einem Gedankenstrich zu verkleinern, oder auf die grünen Pfeile für benachbarte Karten.


METAR-TAF: